Data for 10/31/2008

Time Sea-Level Adjusted Pressure Absolute Pressure Temperature Relative Humidity Dew Point   
(mb) (inHg) (mb) (inHg) (C) (F) (%) (C) (F)
00:05 1025 30.27 854 25.22 9.3 48.8 30 -7.6 18.4
00:10 1024 30.24 854 25.22 9.2 48.5 30 -7.4 18.6
00:15 1025 30.27 854 25.22 9.1 48.4 30 -7.8 18
00:20 1025 30.27 854 25.22 9.3 48.7 28 -8.1 17.4
00:25 1025 30.27 854 25.22 9.9 49.8 27 -8.1 17.3
00:30 1025 30.27 854 25.22 10.1 50.2 27 -8.1 17.5
00:35 1025 30.27 854 25.22 10 50 28 -7.6 18.2
00:40 1025 30.27 854 25.22 9.3 48.7 30 -7.4 18.6
00:45 1025 30.27 854 25.22 8.8 47.9 30 -7.8 18
00:50 1025 30.27 854 25.22 9 48.2 30 -7.8 17.9
00:55 1025 30.27 854 25.22 9.1 48.3 29 -7.9 17.7
01:00 1025 30.27 854 25.22 9.1 48.4 29 -7.9 17.9
01:05 1025 30.27 854 25.22 9 48.2 29 -7.9 17.7
01:10 1025 30.27 854 25.22 8.9 48.1 30 -7.8 18
01:15 1025 30.27 854 25.22 8.7 47.6 30 -7.8 18
01:20 1025 30.27 854 25.22 8.7 47.6 30 -7.9 17.8
01:25 1025 30.27 854 25.22 8.9 48.1 29 -8 17.5
01:30 1025 30.27 854 25.22 9.2 48.5 29 -7.9 17.8
01:35 1025 30.27 854 25.22 9 48.3 30 -7.8 18
01:40 1025 30.27 854 25.22 8.4 47.1 31 -7.7 18.1
01:45 1025 30.27 854 25.22 8 46.5 31 -8 17.6
01:50 1025 30.27 854 25.22 8.3 47 29 -8.6 16.5
01:55 1025 30.27 854 25.22 9.2 48.5 28 -8.4 16.9
02:00 1025 30.27 854 25.22 9.6 49.3 27 -8.3 17.1
02:05 1025 30.27 854 25.22 9.4 49 28 -8 17.6
02:10 1025 30.27 854 25.22 8.8 47.8 30 -8 17.7
02:15 1025 30.27 854 25.22 8.9 48 29 -8.2 17.2
02:20 1025 30.27 854 25.22 8.9 47.9 31 -7.5 18.5
02:25 1025 30.27 854 25.22 8.3 46.9 31 -7.8 18
02:30 1025 30.27 854 25.22 8.5 47.3 30 -8.3 17.1
02:35 1025 30.27 854 25.22 8.8 47.8 29 -8.2 17.2
02:40 1025 30.27 854 25.22 9 48.3 28 -8.5 16.8
02:45 1025 30.27 854 25.22 9.6 49.2 28 -8.1 17.5
02:50 1025 30.27 854 25.22 9.2 48.6 29 -7.8 18
02:55 1025 30.27 854 25.22 8.7 47.7 30 -7.9 17.8
03:00 1025 30.27 854 25.22 8.5 47.2 31 -7.8 18
03:05 1025 30.27 854 25.22 8.2 46.8 31 -7.9 17.9
03:10 1025 30.27 854 25.22 8.3 46.9 31 -7.7 18.1
03:15 1025 30.27 854 25.22 8.1 46.6 32 -7.6 18.3
03:20 1025 30.27 854 25.22 7.8 46 33 -7.5 18.5
03:25 1025 30.27 854 25.22 7.6 45.7 33 -7.5 18.4
03:30 1025 30.27 854 25.22 7.5 45.5 33 -7.7 18.2
03:35 1025 30.27 854 25.22 7.8 46 32 -7.8 18
03:40 1025 30.27 854 25.22 8 46.4 33 -7.4 18.7
03:45 1025 30.27 854 25.22 8 46.3 33 -7.3 18.9
03:50 1025 30.27 854 25.22 7.8 46 33 -7.5 18.6
03:55 1025 30.27 854 25.22 8.1 46.6 32 -7.5 18.5
04:00 1025 30.27 854 25.22 8.2 46.7 32 -7.6 18.3
04:05 1025 30.27 854 25.22 8.4 47.1 32 -7.2 19
04:10 1025 30.27 854 25.22 8.3 47 33 -7 19.4
04:15 1025 30.27 854 25.22 8.1 46.6 33 -7.2 19
04:20 1025 30.27 854 25.22 8.3 46.9 32 -7.3 18.9
04:25 1025 30.27 854 25.22 8.4 47.1 32 -7.3 18.9
04:30 1025 30.27 854 25.22 8.5 47.2 31 -7.6 18.3
04:35 1025 30.27 854 25.22 8.9 47.9 31 -7.4 18.7
04:40 1025 30.27 854 25.22 8.9 48 31 -7.2 19
04:45 1025 30.27 854 25.22 8.8 47.8 32 -7.1 19.2
04:50 1025 30.27 854 25.22 8.5 47.3 32 -7.1 19.3
04:55 1025 30.27 854 25.22 8.2 46.8 33 -7.3 18.9
05:00 1025 30.27 854 25.22 8.2 46.8 33 -7.1 19.2
05:05 1025 30.27 854 25.22 8.1 46.6 33 -7.2 19
05:10 1025 30.27 854 25.22 8 46.4 33 -7.3 18.8
05:15 1025 30.27 854 25.22 8.3 46.9 32 -7.3 18.8
05:20 1025 30.27 854 25.22 8.2 46.8 34 -6.7 20
05:25 1025 30.27 854 25.22 7.5 45.5 37 -6.4 20.4
05:30 1025 30.27 854 25.22 7.3 45.1 37 -6.6 20.1
05:35 1025 30.27 854 25.22 7.3 45.1 37 -6.4 20.6
05:40 1025 30.27 854 25.22 7.3 45.1 37 -6.5 20.3
05:45 1025 30.27 854 25.22 7.4 45.3 38 -6.2 20.9
05:50 1025 30.27 854 25.22 7.3 45.1 38 -6.2 20.8
05:55 1025 30.27 854 25.22 7.1 44.9 38 -6.1 20.9
06:00 1025 30.27 854 25.22 7.5 45.6 36 -6.4 20.4
06:05 1025 30.27 854 25.22 7.9 46.1 35 -6.5 20.3
06:10 1025 30.27 854 25.22 8 46.4 36 -6.3 20.6
06:15 1025 30.27 854 25.22 8.2 46.7 36 -6.2 20.9
06:20 1025 30.27 854 25.22 7.6 45.7 36 -6.4 20.5
06:25 1025 30.27 854 25.22 7.9 46.3 36 -6.1 21.1
06:30 1025 30.27 854 25.22 7.8 46 38 -5.8 21.6
06:35 1025 30.27 854 25.22 7.5 45.5 39 -5.5 22.1
06:40 1024 30.24 854 25.22 7.3 45.2 37 -6.4 20.4
06:45 1024 30.24 854 25.22 8 46.5 36 -6.3 20.7
06:50 1024 30.24 854 25.22 8.6 47.5 35 -5.9 21.5
06:55 1024 30.24 854 25.22 8.2 46.8 38 -5.1 22.7
07:00 1024 30.24 854 25.22 7.8 46.1 35 -6.5 20.3
07:05 1024 30.24 854 25.22 8.1 46.6 36 -6.2 20.9
07:10 1024 30.24 853 25.19 8.2 46.8 35 -6.5 20.3
07:15 1024 30.24 854 25.22 8.3 46.9 37 -5.6 21.8
07:20 1024 30.24 854 25.22 8.2 46.8 36 -6 21.3
07:25 1024 30.24 854 25.22 8.1 46.6 37 -5.8 21.5
07:30 1024 30.24 854 25.22 8.1 46.5 35 -6.3 20.6
07:35 1024 30.24 853 25.19 8.8 47.8 33 -6.6 20.1
07:40 1024 30.24 853 25.19 9.1 48.3 32 -6.7 19.9
07:45 1024 30.24 854 25.22 9 48.3 36 -5.4 22.3
07:50 1024 30.24 854 25.22 8.5 47.2 37 -5.5 22.1
07:55 1024 30.24 854 25.22 8.4 47.1 34 -6.4 20.5
08:00 1024 30.24 854 25.22 8.6 47.5 33 -6.6 20
08:05 1024 30.24 853 25.19 9 48.2 32 -6.7 20
08:10 1024 30.24 853 25.19 9.2 48.6 32 -6.5 20.4
08:15 1024 30.24 854 25.22 9.1 48.3 34 -6 21.2
08:20 1024 30.24 854 25.22 8.9 48 33 -6.4 20.4
08:25 1024 30.24 854 25.22 9.1 48.4 32 -6.6 20.2
08:30 1024 30.24 854 25.22 9.4 48.9 32 -6.3 20.6
08:35 1024 30.24 854 25.22 9.2 48.5 33 -6.1 21.1
08:40 1024 30.24 853 25.19 9 48.2 33 -6.4 20.5
08:45 1024 30.24 854 25.22 9.4 48.9 32 -6.3 20.7
08:50 1024 30.24 854 25.22 9.4 48.9 33 -6 21.1
08:55 1024 30.24 854 25.22 9.3 48.8 33 -6.2 20.9
09:00 1024 30.24 854 25.22 9.5 49.2 32 -6.2 20.9
09:05 1024 30.24 854 25.22 9.7 49.5 32 -6.2 20.9
09:10 1024 30.24 854 25.22 9.8 49.7 32 -5.9 21.4
09:15 1024 30.24 854 25.22 9.8 49.6 33 -5.9 21.4
09:20 1024 30.24 854 25.22 9.7 49.4 33 -5.9 21.4
09:25 1024 30.24 853 25.19 9.8 49.7 32 -6.1 21
09:30 1024 30.24 853 25.19 10.2 50.3 32 -6 21.2
09:35 1024 30.24 854 25.22 10.3 50.6 32 -5.7 21.8
09:40 1024 30.24 854 25.22 10.2 50.4 32 -5.6 21.9
09:45 1024 30.24 854 25.22 10.4 50.6 33 -5.4 22.4
09:50 1024 30.24 854 25.22 10.3 50.5 32 -5.9 21.4
09:55 1024 30.24 854 25.22 10 50 32 -5.9 21.5
10:00 1024 30.24 854 25.22 9.9 49.9 32 -5.8 21.5
10:05 1024 30.24 854 25.22 9.4 48.9 33 -5.9 21.4
10:10 1024 30.24 854 25.22 9.2 48.5 34 -5.8 21.6
10:15 1024 30.24 854 25.22 8.6 47.5 37 -5.2 22.6
10:20 1024 30.24 854 25.22 8.4 47.1 36 -5.9 21.3
10:25 1024 30.24 854 25.22 8.4 47.1 37 -5.4 22.3
10:30 1024 30.24 854 25.22 8.5 47.3 36 -5.8 21.6
10:35 1024 30.24 854 25.22 8.6 47.4 35 -6.2 20.9
10:40 1024 30.24 854 25.22 8.7 47.7 36 -5.6 21.9
10:45 1024 30.24 854 25.22 9 48.2 34 -6.1 21.1
10:50 1024 30.24 854 25.22 9.3 48.7 34 -6 21.3
10:55 1024 30.24 853 25.19 9.1 48.4 33 -6.4 20.5
11:00 1024 30.24 853 25.19 9.2 48.6 34 -5.9 21.4
11:05 1024 30.24 853 25.19 9 48.2 37 -5.1 22.9
11:10 1024 30.24 853 25.19 8.7 47.6 37 -5 23
11:15 1024 30.24 853 25.19 8.9 48.1 37 -4.8 23.4
11:20 1024 30.24 853 25.19 9 48.3 38 -4.6 23.7
11:25 1024 30.24 853 25.19 9.3 48.7 37 -4.6 23.7
11:30 1024 30.24 853 25.19 9.5 49.2 36 -4.6 23.7
11:35 1024 30.24 853 25.19 9.5 49.2 37 -4.2 24.4
11:40 1024 30.24 853 25.19 9.8 49.6 38 -4 24.8
11:45 1024 30.24 853 25.19 9.9 49.9 36 -4.3 24.2
11:50 1024 30.24 853 25.19 9.9 49.8 38 -3.8 25.2
11:55 1024 30.24 853 25.19 9.9 49.8 39 -3.5 25.6
12:00 1024 30.24 853 25.19 9.6 49.3 39 -3.7 25.3
12:05 1024 30.24 853 25.19 9.8 49.6 38 -3.8 25.2
12:10 1024 30.24 853 25.19 9.7 49.4 39 -3.5 25.7
12:15 1024 30.24 853 25.19 10 50.1 37 -4.1 24.7
12:20 1024 30.24 853 25.19 10.4 50.8 37 -3.7 25.3
12:25 1024 30.24 853 25.19 10.5 50.9 37 -3.5 25.6
12:30 1024 30.24 853 25.19 10.4 50.8 37 -3.7 25.3
12:35 1024 30.24 853 25.19 10.3 50.6 36 -4.1 24.7
12:40 1024 30.24 853 25.19 10.6 51.1 35 -4.3 24.2
12:45 1024 30.24 853 25.19 10.7 51.3 35 -3.9 24.9
12:50 1024 30.24 853 25.19 11 51.8 35 -3.8 25.1
12:55 1023 30.21 853 25.19 11.4 52.6 34 -4 24.8
13:00 1023 30.21 853 25.19 11.5 52.7 31 -4.9 23.3
13:05 1023 30.21 853 25.19 12.1 53.7 33 -3.6 25.5
13:10 1023 30.21 852 25.16 12.6 54.6 33 -3.1 26.4
13:15 1023 30.21 852 25.16 12.7 54.8 33 -3.2 26.2
13:20 1023 30.21 852 25.16 13.1 55.6 34 -2.5 27.5
13:25 1023 30.21 852 25.16 13.3 56 33 -2.4 27.7
13:30 1023 30.21 852 25.16 13.4 56 33 -2.7 27.2
13:35 1023 30.21 852 25.16 13.8 56.8 32 -2.5 27.5
13:40 1023 30.21 852 25.16 13.8 56.9 32 -2.4 27.7
13:45 1023 30.21 852 25.16 14 57.1 31 -2.8 26.9
13:50 1023 30.21 852 25.16 14.2 57.6 31 -2.5 27.5
13:55 1023 30.21 852 25.16 14.6 58.3 30 -2.8 27
14:00 1023 30.21 852 25.16 15.4 59.7 30 -2.1 28.2
14:05 1023 30.21 852 25.16 14.7 58.5 31 -2.2 28.1
14:10 1023 30.21 852 25.16 13.9 56.9 33 -2.3 27.9
14:15 1023 30.21 852 25.16 13.4 56.1 34 -2.2 28
14:20 1023 30.21 852 25.16 13.1 55.5 34 -2.5 27.4
14:25 1023 30.21 852 25.16 12.7 54.8 34 -2.5 27.4
14:30 1023 30.21 852 25.16 12.7 54.8 35 -2.2 28
14:35 1023 30.21 852 25.16 12.5 54.5 36 -2.2 28
14:40 1023 30.21 852 25.16 12.6 54.8 35 -2.2 28
14:45 1023 30.21 852 25.16 12.9 55.2 35 -2.1 28.3
14:50 1023 30.21 852 25.16 13.4 56.1 35 -1.5 29.3
14:55 1023 30.21 852 25.16 13.7 56.7 34 -1.8 28.8
15:00 1023 30.21 852 25.16 13.7 56.6 35 -1.6 29.1
15:05 1023 30.21 852 25.16 13.9 57.1 33 -1.9 28.6
15:10 1023 30.21 852 25.16 14.6 58.2 34 -0.9 30.3
15:15 1023 30.21 852 25.16 14.4 57.9 34 -1.4 29.5
15:20 1023 30.21 852 25.16 14.7 58.4 33 -1.3 29.6
15:25 1023 30.21 852 25.16 14.7 58.5 33 -1.4 29.4
15:30 1023 30.21 852 25.16 15.3 59.5 32 -1.3 29.6
15:35 1023 30.21 852 25.16 15.5 59.9 32 -1 30.2
15:40 1023 30.21 852 25.16 14.9 58.8 34 -0.8 30.6
15:45 1023 30.21 852 25.16 14.5 58.2 34 -1.1 30.1
15:50 1023 30.21 852 25.16 14.4 57.8 33 -1.7 28.9
15:55 1023 30.21 852 25.16 15 59 29 -3 26.5
16:00 1023 30.21 852 25.16 16.4 61.5 27 -2.4 27.7
16:05 1023 30.21 852 25.16 16.5 61.6 30 -0.8 30.5
16:10 1023 30.21 852 25.16 15.7 60.3 29 -2.2 28
16:15 1023 30.21 852 25.16 16.4 61.6 28 -2.1 28.3
16:20 1023 30.21 852 25.16 17.8 64 25 -2.5 27.5
16:25 1023 30.21 852 25.16 19 66.3 24 -2 28.3
16:30 1023 30.21 852 25.16 19.6 67.2 23 -2.1 28.2
16:35 1023 30.21 852 25.16 19.8 67.6 24 -1.2 29.9
16:40 1023 30.21 852 25.16 19.1 66.4 25 -1.4 29.5
16:45 1023 30.21 852 25.16 19.1 66.4 25 -1.4 29.6
16:50 1023 30.21 852 25.16 19.2 66.5 24 -1.6 29.2
16:55 1023 30.21 852 25.16 19.1 66.3 25 -1.3 29.6
17:00 1023 30.21 852 25.16 19.2 66.6 24 -1.4 29.5
17:05 1023 30.21 852 25.16 19 66.2 25 -1.1 30
17:10 1023 30.21 852 25.16 18.8 65.8 26 -1.1 30
17:15 1023 30.21 852 25.16 18.6 65.6 26 -1.3 29.7
17:20 1023 30.21 852 25.16 18.7 65.6 26 -1.3 29.6
17:25 1023 30.21 852 25.16 18.7 65.7 25 -1.3 29.6
17:30 1023 30.21 852 25.16 18.6 65.5 27 -0.8 30.6
17:35 1023 30.21 852 25.16 18.4 65 27 -1 30.2
17:40 1023 30.21 852 25.16 18.3 65 26 -1.4 29.5
17:45 1023 30.21 852 25.16 18.1 64.6 27 -0.9 30.4
17:50 1023 30.21 852 25.16 17.8 64 27 -1.3 29.7
17:55 1023 30.21 852 25.16 17.7 63.8 27 -1.5 29.3
18:00 1023 30.21 852 25.16 17.7 63.8 27 -1.4 29.4
18:05 1023 30.21 852 25.16 17.7 63.9 27 -1.3 29.6
18:10 1023 30.21 853 25.19 17.6 63.7 28 -1.2 29.9
18:15 1023 30.21 853 25.19 17.6 63.6 28 -1.1 30.1
18:20 1023 30.21 853 25.19 17.6 63.6 28 -0.9 30.5
18:25 1023 30.21 853 25.19 17.4 63.4 29 -0.9 30.4
18:30 1024 30.24 853 25.19 17.3 63.1 29 -1 30.3
18:35 1023 30.21 853 25.19 17.3 63.1 28 -1.1 30
18:40 1024 30.24 853 25.19 17.4 63.3 28 -1.1 30.1
18:45 1024 30.24 853 25.19 17.2 62.9 29 -0.8 30.5
18:50 1024 30.24 853 25.19 17 62.6 30 -0.5 31
18:55 1024 30.24 853 25.19 16.9 62.4 30 -0.5 31.2
19:00 1024 30.24 853 25.19 16.8 62.3 31 -0.3 31.5
19:05 1024 30.24 853 25.19 16.7 62.1 31 -0.4 31.3
19:10 1024 30.24 853 25.19 16.5 61.8 32 -0.2 31.6
19:15 1024 30.24 853 25.19 16.4 61.5 31 -0.5 31.1
19:20 1024 30.24 853 25.19 16.5 61.6 32 -0.3 31.5
19:25 1024 30.24 853 25.19 16.4 61.4 32 -0.1 31.8
19:30 1024 30.24 853 25.19 16.1 61 33 -0.1 31.8
19:35 1024 30.24 853 25.19 15.9 60.6 36 0.7 33.3
19:40 1024 30.24 853 25.19 15.8 60.4 34 -0.1 31.9
19:45 1024 30.24 853 25.19 15.7 60.3 34 -0.1 31.9
19:50 1024 30.24 853 25.19 15.6 60.2 34 -0.1 31.9
19:55 1024 30.24 853 25.19 15.5 59.9 35 0 32.1
20:00 1024 30.24 853 25.19 15.5 59.9 35 0.1 32.2
20:05 1024 30.24 853 25.19 15.4 59.8 35 0.3 32.5
20:10 1024 30.24 853 25.19 15.2 59.3 36 0.4 32.8
20:15 1024 30.24 853 25.19 15 59 37 0.7 33.2
20:20 1024 30.24 853 25.19 14.9 58.8 38 0.7 33.3
20:25 1024 30.24 853 25.19 14.6 58.3 37 0 32
20:30 1024 30.24 853 25.19 15.2 59.3 35 -0.2 31.6
20:35 1024 30.24 853 25.19 15.5 59.9 36 0.4 32.7
20:40 1024 30.24 853 25.19 15.5 59.9 34 -0.1 31.7
20:45 1024 30.24 853 25.19 15.5 60 35 0.1 32.2
20:50 1024 30.24 853 25.19 15.3 59.6 35 0.1 32.2
20:55 1024 30.24 853 25.19 15.3 59.5 36 0.3 32.5
21:00 1024 30.24 853 25.19 15.2 59.3 35 -0 32
21:05 1024 30.24 853 25.19 14.9 58.9 36 0.2 32.3
21:10 1024 30.24 853 25.19 14.7 58.4 36 -0 32
21:15 1024 30.24 853 25.19 14.5 58.1 38 0.6 33
21:20 1024 30.24 853 25.19 14.2 57.5 39 0.5 32.9
21:25 1024 30.24 853 25.19 14.4 57.9 37 -0.2 31.7
21:30 1024 30.24 853 25.19 14.7 58.4 37 0.3 32.6
21:35 1024 30.24 853 25.19 14.3 57.7 38 0.4 32.7
21:40 1024 30.24 853 25.19 14.1 57.3 38 0.1 32.2
21:45 1024 30.24 853 25.19 13.9 57.1 39 0.2 32.4
21:50 1024 30.24 853 25.19 13.5 56.3 40 0.4 32.7
21:55 1024 30.24 853 25.19 13.1 55.5 41 0.2 32.3
22:00 1024 30.24 853 25.19 12.8 55 43 0.6 33
22:05 1024 30.24 853 25.19 13 55.4 40 -0.1 31.9
22:10 1024 30.24 853 25.19 13.6 56.5 39 0 32
22:15 1024 30.24 854 25.22 13.8 56.8 40 0.3 32.6
22:20 1024 30.24 854 25.22 13.6 56.5 41 0.6 33.1
22:25 1024 30.24 854 25.22 12.7 54.9 46 1.4 34.5
22:30 1024 30.24 854 25.22 11.4 52.5 49 1 33.8
22:35 1024 30.24 854 25.22 11.3 52.4 46 0.3 32.5
22:40 1024 30.24 854 25.22 12.1 53.9 44 0.3 32.5
22:45 1024 30.24 854 25.22 13.2 55.7 41 0.4 32.6
22:50 1024 30.24 854 25.22 13.2 55.8 41 0.5 32.8
22:55 1024 30.24 854 25.22 13.1 55.6 42 0.7 33.2
23:00 1024 30.24 854 25.22 12.8 55 44 1 33.9
23:05 1024 30.24 854 25.22 12.1 53.7 46 0.9 33.6
23:10 1024 30.24 854 25.22 11.6 52.8 47 0.8 33.4
23:15 1024 30.24 854 25.22 11.5 52.6 47 0.7 33.2
23:20 1024 30.24 854 25.22 11.4 52.4 47 0.6 33.1
23:25 1024 30.24 854 25.22 11.6 52.9 47 0.6 33.2
23:30 1024 30.24 854 25.22 11.6 52.9 47 0.8 33.4
23:35 1025 30.27 854 25.22 11.6 52.8 47 0.8 33.4
23:40 1025 30.27 854 25.22 11.6 52.9 47 0.8 33.4
23:45 1025 30.27 854 25.22 11.6 52.9 47 0.8 33.5
23:50 1024 30.24 854 25.22 11.5 52.8 48 0.9 33.7
23:55 1024 30.24 854 25.22 11.5 52.7 48 0.9 33.7
24:00 1024 30.24 854 25.22 11.5 52.7 48 0.9 33.7